createdAt,value
2023-01-21T00:01:35.188Z,33.63
2023-01-21T00:05:35.344Z,29.27
2023-01-21T00:09:36.139Z,29.07
2023-01-21T00:13:40.269Z,28.30
2023-01-21T00:17:40.430Z,30.57
2023-01-21T00:21:40.586Z,28.73
2023-01-21T00:25:40.790Z,30.73
2023-01-21T00:29:43.594Z,30.20
2023-01-21T00:33:44.293Z,35.93
2023-01-21T00:37:45.198Z,34.20
2023-01-21T00:41:45.417Z,37.40
2023-01-21T00:45:48.167Z,43.30
2023-01-21T00:49:48.360Z,31.83
2023-01-21T00:53:48.572Z,31.97
2023-01-21T00:57:48.714Z,31.83
2023-01-21T01:01:51.627Z,31.27
2023-01-21T01:05:51.773Z,28.03
2023-01-21T01:09:51.926Z,32.60
2023-01-21T01:13:52.154Z,28.60
2023-01-21T01:17:55.195Z,28.60
2023-01-21T01:21:55.334Z,25.77
2023-01-21T01:26:00.726Z,32.70
2023-01-21T01:30:00.834Z,30.57
2023-01-21T01:34:03.591Z,26.17
2023-01-21T01:38:08.034Z,30.20
2023-01-21T01:42:08.315Z,25.60
2023-01-21T01:46:08.591Z,30.47
2023-01-21T01:50:18.317Z,28.80
2023-01-21T01:54:23.246Z,28.87
2023-01-21T01:58:25.677Z,26.93
2023-01-21T02:02:25.878Z,29.77
2023-01-21T02:06:29.791Z,29.57
2023-01-21T02:10:30.137Z,28.50
2023-01-21T02:14:32.411Z,32.53
2023-01-21T02:18:45.754Z,30.73
2023-01-21T02:23:01.607Z,30.53
2023-01-21T02:27:43.793Z,30.63
2023-01-21T02:32:22.797Z,28.13
2023-01-21T02:36:59.210Z,28.00
2023-01-21T02:41:14.452Z,28.97
2023-01-21T02:45:29.717Z,28.10
2023-01-21T02:49:38.054Z,28.43
2023-01-21T02:53:40.865Z,26.77
2023-01-21T02:57:47.467Z,25.87
2023-01-21T03:02:08.479Z,27.47
2023-01-21T03:06:55.667Z,25.63
2023-01-21T03:11:12.007Z,24.97
2023-01-21T03:15:31.435Z,29.47
2023-01-21T03:19:39.997Z,25.27
2023-01-21T03:23:47.335Z,27.13
2023-01-21T03:27:52.480Z,27.50
2023-01-21T03:31:59.803Z,25.87
2023-01-21T03:36:04.496Z,27.13
2023-01-21T03:40:19.280Z,28.27
2023-01-21T03:44:22.408Z,25.67
2023-01-21T03:48:31.449Z,27.47
2023-01-21T03:52:32.108Z,26.40
2023-01-21T03:56:32.592Z,28.07
2023-01-21T04:00:35.326Z,24.70
2023-01-21T04:09:45.821Z,26.77
2023-01-21T04:13:46.188Z,28.00
2023-01-21T04:17:48.898Z,28.07
2023-01-21T04:21:49.725Z,23.87
2023-01-21T04:25:51.072Z,27.60
2023-01-21T04:29:51.236Z,28.33
2023-01-21T04:33:53.903Z,32.07
2023-01-21T04:37:54.151Z,28.53
2023-01-21T04:41:54.268Z,31.03
2023-01-21T04:45:54.398Z,27.27
2023-01-21T04:49:57.309Z,25.57
2023-01-21T04:53:57.472Z,30.67
2023-01-21T04:57:57.619Z,30.07
2023-01-21T05:01:57.712Z,27.80
2023-01-21T05:06:00.438Z,28.77
2023-01-21T05:10:00.626Z,25.63
2023-01-21T05:14:00.796Z,27.90
2023-01-21T05:18:01.063Z,33.70
2023-01-21T05:22:04.231Z,31.37
2023-01-21T05:26:04.407Z,28.47
2023-01-21T05:30:04.542Z,29.03
2023-01-21T05:34:04.871Z,27.67
2023-01-21T05:38:07.815Z,29.70
2023-01-21T05:42:08.274Z,31.73
2023-01-21T05:46:09.025Z,31.83
2023-01-21T05:50:11.621Z,30.80
2023-01-21T05:54:14.393Z,28.57
2023-01-21T05:58:14.758Z,32.37
2023-01-21T06:02:14.965Z,29.37
2023-01-21T06:06:15.061Z,31.17
2023-01-21T06:10:19.056Z,31.23
2023-01-21T06:14:19.335Z,27.97
2023-01-21T06:18:19.465Z,31.37
2023-01-21T06:22:20.887Z,31.03
2023-01-21T06:26:25.002Z,28.37
2023-01-21T06:30:27.553Z,32.43
2023-01-21T06:34:27.762Z,27.60
2023-01-21T06:38:27.976Z,27.70
2023-01-21T06:42:30.786Z,29.77
2023-01-21T06:46:30.964Z,27.47
2023-01-21T06:50:31.182Z,29.73
2023-01-21T06:54:31.403Z,23.53
2023-01-21T06:58:34.266Z,27.73
2023-01-21T07:02:34.680Z,24.43
2023-01-21T07:06:34.954Z,26.63
2023-01-21T07:10:35.188Z,27.17
2023-01-21T07:14:38.062Z,26.17
2023-01-21T07:18:38.462Z,27.73
2023-01-21T07:22:38.959Z,22.00
2023-01-21T07:26:39.290Z,24.43
2023-01-21T07:30:42.093Z,30.43
2023-01-21T07:34:42.318Z,26.80
2023-01-21T07:38:42.713Z,22.53
2023-01-21T07:42:42.835Z,24.10
2023-01-21T07:46:45.659Z,24.17
2023-01-21T07:50:45.800Z,22.03
2023-01-21T07:54:45.980Z,21.97
2023-01-21T07:58:47.174Z,20.93
2023-01-21T08:02:55.119Z,20.13
2023-01-21T08:06:57.178Z,18.80
2023-01-21T08:10:58.891Z,18.73
2023-01-21T08:14:59.038Z,21.67
2023-01-21T08:19:01.924Z,23.13
2023-01-21T08:23:03.535Z,25.20
2023-01-21T08:27:03.938Z,25.00
2023-01-21T08:31:09.534Z,23.20
2023-01-21T08:35:13.179Z,22.63
2023-01-21T08:39:16.011Z,20.33
2023-01-21T08:43:16.112Z,21.63
2023-01-21T08:47:16.342Z,23.50
2023-01-21T08:51:21.522Z,21.77
2023-01-21T08:55:21.925Z,23.63
2023-01-21T08:59:28.860Z,23.10
2023-01-21T09:03:30.023Z,21.47
2023-01-21T09:07:32.774Z,20.47
2023-01-21T09:11:34.812Z,22.83
2023-01-21T09:15:35.048Z,21.83
2023-01-21T09:19:35.192Z,18.90
2023-01-21T09:23:39.789Z,15.73
2023-01-21T09:27:39.999Z,15.03
2023-01-21T09:31:40.364Z,14.80
2023-01-21T09:35:40.519Z,16.33
2023-01-21T09:39:43.201Z,17.10
2023-01-21T09:43:49.178Z,15.57
2023-01-21T09:47:52.482Z,18.37
2023-01-21T09:52:02.219Z,13.97
2023-01-21T09:56:24.672Z,14.87
2023-01-21T10:00:39.701Z,15.83
2023-01-21T10:04:51.204Z,15.13
2023-01-21T10:09:49.070Z,16.40
2023-01-21T10:14:28.749Z,13.97
2023-01-21T10:18:35.190Z,15.23
2023-01-21T10:22:36.639Z,13.47
2023-01-21T10:26:38.254Z,11.70
2023-01-21T10:30:46.778Z,12.23
2023-01-21T10:34:56.023Z,10.40
2023-01-21T10:39:11.260Z,13.17
2023-01-21T10:43:23.951Z,12.30
2023-01-21T10:47:42.489Z,10.87
2023-01-21T10:51:52.175Z,9.43
2023-01-21T10:56:19.047Z,9.30
2023-01-21T11:00:25.378Z,8.47
2023-01-21T11:04:31.288Z,7.50
2023-01-21T11:08:31.683Z,8.57
2023-01-21T11:12:33.000Z,9.30
2023-01-21T11:16:48.607Z,10.23
2023-01-21T11:20:52.035Z,10.63
2023-01-21T11:24:54.564Z,10.90
2023-01-21T11:29:14.684Z,9.17
2023-01-21T11:33:23.560Z,8.27
2023-01-21T11:37:29.940Z,8.07
2023-01-21T11:41:30.924Z,7.17
2023-01-21T11:45:34.053Z,7.00
2023-01-21T11:49:35.731Z,6.37
2023-01-21T11:53:38.515Z,5.90
2023-01-21T11:57:38.936Z,6.97
2023-01-21T12:01:39.301Z,6.37
2023-01-21T12:05:45.778Z,7.07
2023-01-21T12:09:53.753Z,6.10
2023-01-21T12:14:04.992Z,8.50
2023-01-21T12:18:19.929Z,7.90
2023-01-21T12:22:42.191Z,8.53
2023-01-21T12:26:49.487Z,9.03
2023-01-21T12:31:08.048Z,7.67
2023-01-21T12:35:19.521Z,9.57
2023-01-21T12:39:27.669Z,6.97
2023-01-21T12:43:36.814Z,8.00
2023-01-21T12:47:47.607Z,7.07
2023-01-21T12:51:53.881Z,8.60
2023-01-21T12:56:10.828Z,8.70
2023-01-21T13:00:24.017Z,12.50
2023-01-21T13:04:43.583Z,7.17
2023-01-21T13:09:06.062Z,7.90
2023-01-21T13:13:21.058Z,11.10
2023-01-21T13:17:29.917Z,13.13
2023-01-21T13:21:42.545Z,16.37
2023-01-21T13:25:53.973Z,12.80
2023-01-21T13:30:04.716Z,14.27
2023-01-21T13:34:22.555Z,11.33
2023-01-21T13:38:35.032Z,16.33
2023-01-21T13:42:50.290Z,10.57
2023-01-21T13:47:09.384Z,10.20
2023-01-21T13:51:38.585Z,15.60
2023-01-21T13:55:54.742Z,14.00
2023-01-21T14:00:00.717Z,21.97
2023-01-21T14:04:09.610Z,11.80
2023-01-21T14:08:22.488Z,10.80
2023-01-21T14:12:36.600Z,12.57
2023-01-21T14:17:09.387Z,12.00
2023-01-21T14:21:49.298Z,12.87
2023-01-21T14:26:11.642Z,10.60
2023-01-21T14:30:21.835Z,10.83
2023-01-21T14:34:27.739Z,9.60
2023-01-21T14:38:46.277Z,10.77
2023-01-21T14:42:53.336Z,11.93
2023-01-21T14:47:23.895Z,11.57
2023-01-21T14:51:25.465Z,16.80
2023-01-21T14:55:32.072Z,12.13
2023-01-21T14:59:43.661Z,13.30
2023-01-21T15:03:52.883Z,13.13
2023-01-21T15:08:07.344Z,12.93
2023-01-21T15:12:19.282Z,12.10
2023-01-21T15:16:38.552Z,10.97
2023-01-21T15:20:50.024Z,12.70
2023-01-21T15:25:21.205Z,11.40
2023-01-21T15:29:36.974Z,10.77
2023-01-21T15:33:48.384Z,12.23
2023-01-21T15:37:53.828Z,12.73
2023-01-21T15:42:13.531Z,11.40
2023-01-21T15:46:31.699Z,14.90
2023-01-21T15:50:46.109Z,13.83
2023-01-21T15:54:58.249Z,11.97
2023-01-21T15:59:15.241Z,12.40
2023-01-21T16:03:30.609Z,13.77
2023-01-21T16:07:59.598Z,11.40
2023-01-21T16:12:20.261Z,19.40
2023-01-21T16:16:40.081Z,22.93
2023-01-21T16:20:45.971Z,17.70
2023-01-21T16:24:52.576Z,17.13
2023-01-21T16:28:52.855Z,12.03
2023-01-21T16:33:12.496Z,20.13
2023-01-21T16:37:16.283Z,17.10
2023-01-21T16:41:27.685Z,16.97
2023-01-21T16:45:28.715Z,15.60
2023-01-21T16:49:29.366Z,16.50
2023-01-21T16:53:30.330Z,16.67
2023-01-21T16:57:35.137Z,18.77
2023-01-21T17:01:36.055Z,20.17
2023-01-21T17:05:40.186Z,21.33
2023-01-21T17:09:40.783Z,20.20
2023-01-21T17:13:46.533Z,17.90
2023-01-21T17:17:48.789Z,21.90
2023-01-21T17:21:55.573Z,22.87
2023-01-21T17:26:03.504Z,19.93
2023-01-21T17:30:30.537Z,20.63
2023-01-21T17:34:32.851Z,18.87
2023-01-21T17:38:33.410Z,18.87
2023-01-21T17:42:42.659Z,19.10
2023-01-21T17:46:51.485Z,21.10
2023-01-21T17:50:52.689Z,18.67
2023-01-21T17:54:52.832Z,19.67
2023-01-21T17:58:55.867Z,19.37
2023-01-21T18:02:58.923Z,19.10
2023-01-21T18:07:00.260Z,16.10
2023-01-21T18:11:00.491Z,18.00
2023-01-21T18:15:00.653Z,20.67
2023-01-21T18:19:03.444Z,18.10
2023-01-21T18:23:03.633Z,20.17
2023-01-21T18:27:05.314Z,17.37
2023-01-21T18:31:05.612Z,23.07
2023-01-21T18:35:09.245Z,20.00
2023-01-21T18:39:21.818Z,19.93
2023-01-21T18:43:21.950Z,20.00
2023-01-21T18:47:23.227Z,19.20
2023-01-21T18:51:26.451Z,17.13
2023-01-21T18:55:31.335Z,17.13
2023-01-21T18:59:31.849Z,17.87
2023-01-21T19:03:32.703Z,17.43
2023-01-21T19:07:35.752Z,15.63
2023-01-21T19:11:36.039Z,15.60
2023-01-21T19:15:36.200Z,16.77
2023-01-21T19:19:36.500Z,14.80
2023-01-21T19:23:40.229Z,18.27
2023-01-21T19:27:44.927Z,18.83
2023-01-21T19:31:45.456Z,18.80
2023-01-21T19:35:48.122Z,16.83
2023-01-21T19:39:50.910Z,17.77
2023-01-21T19:43:51.089Z,16.40
2023-01-21T19:47:54.251Z,24.83
2023-01-21T19:51:54.592Z,18.33
2023-01-21T19:55:58.719Z,18.20
2023-01-21T19:59:59.656Z,15.23
2023-01-21T20:04:01.060Z,15.80
2023-01-21T20:08:02.899Z,19.00
2023-01-21T20:12:06.720Z,22.93
2023-01-21T20:16:19.049Z,22.07
2023-01-21T20:20:26.603Z,19.83
2023-01-21T20:24:26.969Z,17.03
2023-01-21T20:28:39.862Z,18.07
2023-01-21T20:32:40.622Z,18.70
2023-01-21T20:36:41.850Z,18.67
2023-01-21T20:40:42.727Z,21.07
2023-01-21T20:44:45.686Z,16.37
2023-01-21T20:48:47.653Z,17.03
2023-01-21T20:52:48.010Z,18.10
2023-01-21T20:56:48.525Z,18.53
2023-01-21T21:00:52.534Z,19.53
2023-01-21T21:04:53.846Z,18.20
2023-01-21T21:08:54.691Z,16.73
2023-01-21T21:12:55.913Z,17.90
2023-01-21T21:16:58.973Z,16.10
2023-01-21T21:20:59.258Z,16.13
2023-01-21T21:24:59.416Z,18.87
2023-01-21T21:29:00.204Z,17.00
2023-01-21T21:33:04.338Z,17.10
2023-01-21T21:37:04.541Z,16.13
2023-01-21T21:41:26.532Z,16.70
2023-01-21T21:45:27.436Z,16.13
2023-01-21T21:49:31.922Z,19.60
2023-01-21T21:53:33.283Z,16.37
2023-01-21T21:57:34.714Z,17.27
2023-01-21T22:01:36.172Z,17.60
2023-01-21T22:05:38.954Z,17.33
2023-01-21T22:09:39.139Z,20.53
2023-01-21T22:13:43.546Z,17.20
2023-01-21T22:17:43.653Z,18.80
2023-01-21T22:21:46.447Z,20.97
2023-01-21T22:25:46.554Z,21.10
2023-01-21T22:29:46.639Z,22.90
2023-01-21T22:33:47.320Z,17.93
2023-01-21T22:37:50.087Z,19.73
2023-01-21T22:41:50.244Z,18.83
2023-01-21T22:45:50.768Z,19.30
2023-01-21T22:49:50.965Z,23.87
2023-01-21T22:53:55.632Z,19.00
2023-01-21T22:57:55.771Z,17.23
2023-01-21T23:01:55.864Z,17.47
2023-01-21T23:05:57.342Z,13.93
2023-01-21T23:10:00.022Z,15.63
2023-01-21T23:14:00.458Z,15.93
2023-01-21T23:18:00.690Z,13.83
2023-01-21T23:22:00.988Z,15.73
2023-01-21T23:26:05.502Z,15.93
2023-01-21T23:30:05.800Z,14.00
2023-01-21T23:34:06.229Z,13.67
2023-01-21T23:38:07.375Z,13.13
2023-01-21T23:42:10.374Z,16.27
2023-01-21T23:46:16.380Z,15.27
2023-01-21T23:50:17.282Z,24.23
2023-01-21T23:54:18.877Z,24.40
2023-01-21T23:58:21.901Z,20.50
